sensor_id;sensor_type;location;lat;lon;timestamp;P1;durP1;ratioP1;P2;durP2;ratioP2
21810;SDS011;11067;48.788;9.208;2023-09-12T00:00:09;15.27;;;7.60;;
21810;SDS011;11067;48.788;9.208;2023-09-12T00:02:36;14.43;;;7.75;;
21810;SDS011;11067;48.788;9.208;2023-09-12T00:05:02;14.10;;;7.65;;
21810;SDS011;11067;48.788;9.208;2023-09-12T00:07:29;11.88;;;7.55;;
21810;SDS011;11067;48.788;9.208;2023-09-12T00:09:55;13.65;;;7.80;;
21810;SDS011;11067;48.788;9.208;2023-09-12T00:12:22;17.15;;;7.90;;
21810;SDS011;11067;48.788;9.208;2023-09-12T00:14:48;12.35;;;7.50;;
21810;SDS011;11067;48.788;9.208;2023-09-12T00:17:14;15.05;;;8.05;;
21810;SDS011;11067;48.788;9.208;2023-09-12T00:19:40;11.98;;;7.15;;
21810;SDS011;11067;48.788;9.208;2023-09-12T00:22:08;17.77;;;8.13;;
21810;SDS011;11067;48.788;9.208;2023-09-12T00:24:34;16.97;;;7.77;;
21810;SDS011;11067;48.788;9.208;2023-09-12T00:26:59;14.47;;;7.83;;
21810;SDS011;11067;48.788;9.208;2023-09-12T00:29:25;11.10;;;7.63;;
21810;SDS011;11067;48.788;9.208;2023-09-12T00:31:51;14.17;;;8.20;;
21810;SDS011;11067;48.788;9.208;2023-09-12T00:34:17;12.77;;;7.75;;
21810;SDS011;11067;48.788;9.208;2023-09-12T00:36:44;13.73;;;8.37;;
21810;SDS011;11067;48.788;9.208;2023-09-12T00:39:09;14.17;;;8.30;;
21810;SDS011;11067;48.788;9.208;2023-09-12T00:41:35;16.00;;;8.38;;
21810;SDS011;11067;48.788;9.208;2023-09-12T00:44:01;11.80;;;8.50;;
21810;SDS011;11067;48.788;9.208;2023-09-12T00:46:27;15.10;;;8.90;;
21810;SDS011;11067;48.788;9.208;2023-09-12T00:48:54;17.35;;;8.80;;
21810;SDS011;11067;48.788;9.208;2023-09-12T00:51:21;13.93;;;9.05;;
21810;SDS011;11067;48.788;9.208;2023-09-12T00:53:47;13.77;;;8.70;;
21810;SDS011;11067;48.788;9.208;2023-09-12T00:56:14;16.67;;;8.97;;
21810;SDS011;11067;48.788;9.208;2023-09-12T00:58:40;14.00;;;8.40;;
21810;SDS011;11067;48.788;9.208;2023-09-12T01:01:06;14.80;;;8.93;;
21810;SDS011;11067;48.788;9.208;2023-09-12T01:03:32;13.32;;;8.73;;
21810;SDS011;11067;48.788;9.208;2023-09-12T01:05:59;12.98;;;8.50;;
21810;SDS011;11067;48.788;9.208;2023-09-12T01:08:25;15.60;;;8.82;;
21810;SDS011;11067;48.788;9.208;2023-09-12T01:10:52;13.73;;;8.30;;
21810;SDS011;11067;48.788;9.208;2023-09-12T01:13:18;14.53;;;8.47;;
21810;SDS011;11067;48.788;9.208;2023-09-12T01:15:44;14.57;;;8.20;;
21810;SDS011;11067;48.788;9.208;2023-09-12T01:18:10;13.60;;;8.47;;
21810;SDS011;11067;48.788;9.208;2023-09-12T01:20:36;16.35;;;8.98;;
21810;SDS011;11067;48.788;9.208;2023-09-12T01:23:29;16.42;;;8.90;;
21810;SDS011;11067;48.788;9.208;2023-09-12T01:26:10;15.23;;;8.57;;
21810;SDS011;11067;48.788;9.208;2023-09-12T01:28:43;15.25;;;9.13;;
21810;SDS011;11067;48.788;9.208;2023-09-12T01:31:10;15.90;;;8.93;;
21810;SDS011;11067;48.788;9.208;2023-09-12T01:33:39;16.13;;;8.70;;
21810;SDS011;11067;48.788;9.208;2023-09-12T01:36:05;16.00;;;8.55;;
21810;SDS011;11067;48.788;9.208;2023-09-12T01:38:31;11.55;;;8.77;;
21810;SDS011;11067;48.788;9.208;2023-09-12T01:40:57;17.00;;;9.40;;
21810;SDS011;11067;48.788;9.208;2023-09-12T01:43:23;13.60;;;9.23;;
21810;SDS011;11067;48.788;9.208;2023-09-12T01:45:51;17.65;;;8.73;;
21810;SDS011;11067;48.788;9.208;2023-09-12T01:48:19;16.80;;;9.47;;
21810;SDS011;11067;48.788;9.208;2023-09-12T01:50:48;14.60;;;9.02;;
21810;SDS011;11067;48.788;9.208;2023-09-12T01:53:14;14.63;;;8.50;;
21810;SDS011;11067;48.788;9.208;2023-09-12T01:55:43;12.80;;;9.13;;
21810;SDS011;11067;48.788;9.208;2023-09-12T01:58:09;15.88;;;8.65;;
21810;SDS011;11067;48.788;9.208;2023-09-12T02:00:36;17.73;;;8.90;;
21810;SDS011;11067;48.788;9.208;2023-09-12T02:03:03;13.07;;;8.38;;
21810;SDS011;11067;48.788;9.208;2023-09-12T02:05:29;15.20;;;9.30;;
21810;SDS011;11067;48.788;9.208;2023-09-12T02:07:55;17.00;;;9.27;;
21810;SDS011;11067;48.788;9.208;2023-09-12T02:10:21;13.32;;;8.80;;
21810;SDS011;11067;48.788;9.208;2023-09-12T02:12:47;16.15;;;8.68;;
21810;SDS011;11067;48.788;9.208;2023-09-12T02:15:13;20.27;;;9.60;;
21810;SDS011;11067;48.788;9.208;2023-09-12T02:17:40;24.07;;;10.00;;
21810;SDS011;11067;48.788;9.208;2023-09-12T02:20:08;18.07;;;9.43;;
21810;SDS011;11067;48.788;9.208;2023-09-12T02:22:35;16.30;;;9.00;;
21810;SDS011;11067;48.788;9.208;2023-09-12T02:25:01;17.60;;;9.35;;
21810;SDS011;11067;48.788;9.208;2023-09-12T02:27:28;12.00;;;8.05;;
21810;SDS011;11067;48.788;9.208;2023-09-12T02:29:54;15.83;;;8.87;;
21810;SDS011;11067;48.788;9.208;2023-09-12T02:32:20;13.20;;;9.30;;
21810;SDS011;11067;48.788;9.208;2023-09-12T02:34:46;15.80;;;8.85;;
21810;SDS011;11067;48.788;9.208;2023-09-12T02:37:12;16.05;;;8.73;;
21810;SDS011;11067;48.788;9.208;2023-09-12T02:39:38;15.35;;;9.10;;
21810;SDS011;11067;48.788;9.208;2023-09-12T02:42:04;17.20;;;9.10;;
21810;SDS011;11067;48.788;9.208;2023-09-12T02:44:30;16.25;;;9.20;;
21810;SDS011;11067;48.788;9.208;2023-09-12T02:46:56;14.85;;;8.88;;
21810;SDS011;11067;48.788;9.208;2023-09-12T02:49:22;15.60;;;9.32;;
21810;SDS011;11067;48.788;9.208;2023-09-12T02:51:48;13.20;;;9.00;;
21810;SDS011;11067;48.788;9.208;2023-09-12T02:54:13;15.87;;;9.13;;
21810;SDS011;11067;48.788;9.208;2023-09-12T02:56:39;16.67;;;9.10;;
21810;SDS011;11067;48.788;9.208;2023-09-12T02:59:05;16.20;;;8.93;;
21810;SDS011;11067;48.788;9.208;2023-09-12T03:01:31;13.30;;;8.97;;
21810;SDS011;11067;48.788;9.208;2023-09-12T03:03:57;15.00;;;9.20;;
21810;SDS011;11067;48.788;9.208;2023-09-12T03:06:23;13.63;;;8.70;;
21810;SDS011;11067;48.788;9.208;2023-09-12T03:08:49;15.27;;;9.00;;
21810;SDS011;11067;48.788;9.208;2023-09-12T03:11:15;17.23;;;9.82;;
21810;SDS011;11067;48.788;9.208;2023-09-12T03:13:41;14.00;;;8.90;;
21810;SDS011;11067;48.788;9.208;2023-09-12T03:16:11;18.00;;;9.40;;
21810;SDS011;11067;48.788;9.208;2023-09-12T03:18:37;14.98;;;9.00;;
21810;SDS011;11067;48.788;9.208;2023-09-12T03:21:03;12.75;;;9.00;;
21810;SDS011;11067;48.788;9.208;2023-09-12T03:23:29;17.08;;;9.13;;
21810;SDS011;11067;48.788;9.208;2023-09-12T03:25:59;16.08;;;9.80;;
21810;SDS011;11067;48.788;9.208;2023-09-12T03:28:25;15.10;;;9.32;;
21810;SDS011;11067;48.788;9.208;2023-09-12T03:30:51;18.73;;;9.50;;
21810;SDS011;11067;48.788;9.208;2023-09-12T03:33:17;15.35;;;8.48;;
21810;SDS011;11067;48.788;9.208;2023-09-12T03:35:43;15.85;;;9.40;;
21810;SDS011;11067;48.788;9.208;2023-09-12T03:38:09;21.33;;;9.80;;
21810;SDS011;11067;48.788;9.208;2023-09-12T03:40:35;16.00;;;9.52;;
21810;SDS011;11067;48.788;9.208;2023-09-12T03:43:01;14.38;;;9.35;;
21810;SDS011;11067;48.788;9.208;2023-09-12T03:45:27;15.40;;;9.40;;
21810;SDS011;11067;48.788;9.208;2023-09-12T03:47:53;13.97;;;9.17;;
21810;SDS011;11067;48.788;9.208;2023-09-12T03:50:19;16.43;;;8.63;;
21810;SDS011;11067;48.788;9.208;2023-09-12T03:52:45;15.67;;;9.10;;
21810;SDS011;11067;48.788;9.208;2023-09-12T03:55:11;18.03;;;9.73;;
21810;SDS011;11067;48.788;9.208;2023-09-12T03:57:37;13.60;;;8.90;;
21810;SDS011;11067;48.788;9.208;2023-09-12T04:00:03;15.47;;;9.87;;
21810;SDS011;11067;48.788;9.208;2023-09-12T04:02:30;12.32;;;8.55;;
21810;SDS011;11067;48.788;9.208;2023-09-12T04:04:56;19.00;;;9.00;;
21810;SDS011;11067;48.788;9.208;2023-09-12T04:07:24;16.13;;;9.37;;
21810;SDS011;11067;48.788;9.208;2023-09-12T04:09:50;12.90;;;8.97;;
21810;SDS011;11067;48.788;9.208;2023-09-12T04:12:16;12.32;;;9.10;;
21810;SDS011;11067;48.788;9.208;2023-09-12T04:14:42;16.98;;;9.15;;
21810;SDS011;11067;48.788;9.208;2023-09-12T04:17:08;15.52;;;9.30;;
21810;SDS011;11067;48.788;9.208;2023-09-12T04:19:34;17.00;;;8.77;;
21810;SDS011;11067;48.788;9.208;2023-09-12T04:22:00;15.32;;;8.98;;
21810;SDS011;11067;48.788;9.208;2023-09-12T04:24:26;14.35;;;9.10;;
21810;SDS011;11067;48.788;9.208;2023-09-12T04:26:53;20.98;;;9.75;;
21810;SDS011;11067;48.788;9.208;2023-09-12T04:29:19;14.77;;;9.10;;
21810;SDS011;11067;48.788;9.208;2023-09-12T04:31:45;15.65;;;8.82;;
21810;SDS011;11067;48.788;9.208;2023-09-12T04:34:11;14.85;;;8.82;;
21810;SDS011;11067;48.788;9.208;2023-09-12T04:36:37;13.40;;;8.85;;
21810;SDS011;11067;48.788;9.208;2023-09-12T04:39:03;17.90;;;9.02;;
21810;SDS011;11067;48.788;9.208;2023-09-12T04:41:30;13.60;;;9.35;;
21810;SDS011;11067;48.788;9.208;2023-09-12T04:43:56;15.15;;;9.18;;
21810;SDS011;11067;48.788;9.208;2023-09-12T04:46:23;13.53;;;8.77;;
21810;SDS011;11067;48.788;9.208;2023-09-12T04:48:49;17.30;;;9.70;;
21810;SDS011;11067;48.788;9.208;2023-09-12T04:51:15;13.97;;;9.03;;
21810;SDS011;11067;48.788;9.208;2023-09-12T04:53:42;16.00;;;9.68;;
21810;SDS011;11067;48.788;9.208;2023-09-12T04:56:09;13.45;;;9.13;;
21810;SDS011;11067;48.788;9.208;2023-09-12T04:58:35;13.30;;;9.32;;
21810;SDS011;11067;48.788;9.208;2023-09-12T05:01:01;13.57;;;9.30;;
21810;SDS011;11067;48.788;9.208;2023-09-12T05:03:27;14.32;;;9.00;;
21810;SDS011;11067;48.788;9.208;2023-09-12T05:05:53;11.75;;;8.35;;
21810;SDS011;11067;48.788;9.208;2023-09-12T05:08:19;15.32;;;9.35;;
21810;SDS011;11067;48.788;9.208;2023-09-12T05:10:45;16.45;;;9.38;;
21810;SDS011;11067;48.788;9.208;2023-09-12T05:13:11;14.93;;;9.00;;
21810;SDS011;11067;48.788;9.208;2023-09-12T05:15:37;15.13;;;9.35;;
21810;SDS011;11067;48.788;9.208;2023-09-12T05:18:04;13.20;;;8.70;;
21810;SDS011;11067;48.788;9.208;2023-09-12T05:20:30;12.80;;;9.23;;
21810;SDS011;11067;48.788;9.208;2023-09-12T05:22:56;14.25;;;9.75;;
21810;SDS011;11067;48.788;9.208;2023-09-12T05:25:22;16.77;;;9.00;;
21810;SDS011;11067;48.788;9.208;2023-09-12T05:27:48;18.77;;;8.93;;
21810;SDS011;11067;48.788;9.208;2023-09-12T05:30:14;13.65;;;8.85;;
21810;SDS011;11067;48.788;9.208;2023-09-12T05:32:43;14.63;;;8.50;;
21810;SDS011;11067;48.788;9.208;2023-09-12T05:35:09;16.08;;;9.27;;
21810;SDS011;11067;48.788;9.208;2023-09-12T05:37:35;15.75;;;8.73;;
21810;SDS011;11067;48.788;9.208;2023-09-12T05:40:01;13.07;;;8.32;;
21810;SDS011;11067;48.788;9.208;2023-09-12T05:42:28;14.30;;;8.27;;
21810;SDS011;11067;48.788;9.208;2023-09-12T05:44:54;15.85;;;8.40;;
21810;SDS011;11067;48.788;9.208;2023-09-12T05:47:20;14.38;;;8.82;;
21810;SDS011;11067;48.788;9.208;2023-09-12T05:49:46;15.68;;;8.70;;
21810;SDS011;11067;48.788;9.208;2023-09-12T05:52:12;18.95;;;9.23;;
21810;SDS011;11067;48.788;9.208;2023-09-12T05:54:41;12.90;;;8.70;;
21810;SDS011;11067;48.788;9.208;2023-09-12T05:57:07;18.27;;;10.10;;
21810;SDS011;11067;48.788;9.208;2023-09-12T05:59:37;16.25;;;8.60;;
21810;SDS011;11067;48.788;9.208;2023-09-12T06:02:06;14.63;;;8.80;;
21810;SDS011;11067;48.788;9.208;2023-09-12T06:04:34;17.73;;;8.80;;
21810;SDS011;11067;48.788;9.208;2023-09-12T06:07:01;17.48;;;9.45;;
21810;SDS011;11067;48.788;9.208;2023-09-12T06:09:27;13.43;;;8.30;;
21810;SDS011;11067;48.788;9.208;2023-09-12T06:11:54;12.63;;;8.90;;
21810;SDS011;11067;48.788;9.208;2023-09-12T06:14:20;15.02;;;8.65;;
21810;SDS011;11067;48.788;9.208;2023-09-12T06:16:46;15.40;;;8.38;;
21810;SDS011;11067;48.788;9.208;2023-09-12T06:19:12;16.25;;;9.18;;
21810;SDS011;11067;48.788;9.208;2023-09-12T06:21:39;18.65;;;9.10;;
21810;SDS011;11067;48.788;9.208;2023-09-12T06:24:24;15.65;;;8.52;;
21810;SDS011;11067;48.788;9.208;2023-09-12T06:26:50;17.30;;;9.07;;
21810;SDS011;11067;48.788;9.208;2023-09-12T06:29:16;16.73;;;8.23;;
21810;SDS011;11067;48.788;9.208;2023-09-12T06:31:42;15.38;;;9.05;;
21810;SDS011;11067;48.788;9.208;2023-09-12T06:34:08;15.27;;;9.52;;
21810;SDS011;11067;48.788;9.208;2023-09-12T06:36:34;20.58;;;9.32;;
21810;SDS011;11067;48.788;9.208;2023-09-12T06:39:00;20.27;;;8.93;;
21810;SDS011;11067;48.788;9.208;2023-09-12T06:41:26;15.60;;;8.38;;
21810;SDS011;11067;48.788;9.208;2023-09-12T06:43:53;13.80;;;8.38;;
21810;SDS011;11067;48.788;9.208;2023-09-12T06:46:21;13.10;;;8.13;;
21810;SDS011;11067;48.788;9.208;2023-09-12T06:48:47;15.48;;;8.30;;
21810;SDS011;11067;48.788;9.208;2023-09-12T06:51:15;16.58;;;8.93;;
21810;SDS011;11067;48.788;9.208;2023-09-12T06:53:41;14.67;;;8.33;;
21810;SDS011;11067;48.788;9.208;2023-09-12T06:56:07;15.67;;;8.87;;
21810;SDS011;11067;48.788;9.208;2023-09-12T06:58:33;15.00;;;9.17;;
21810;SDS011;11067;48.788;9.208;2023-09-12T07:01:03;17.55;;;8.70;;
21810;SDS011;11067;48.788;9.208;2023-09-12T07:03:29;15.43;;;8.85;;
21810;SDS011;11067;48.788;9.208;2023-09-12T07:05:55;12.70;;;8.00;;
21810;SDS011;11067;48.788;9.208;2023-09-12T07:08:22;15.23;;;8.85;;
21810;SDS011;11067;48.788;9.208;2023-09-12T07:10:48;15.90;;;8.77;;
21810;SDS011;11067;48.788;9.208;2023-09-12T07:13:14;18.83;;;8.88;;
21810;SDS011;11067;48.788;9.208;2023-09-12T07:15:40;19.00;;;8.70;;
21810;SDS011;11067;48.788;9.208;2023-09-12T07:18:06;12.40;;;8.52;;
21810;SDS011;11067;48.788;9.208;2023-09-12T07:20:33;18.23;;;8.43;;
21810;SDS011;11067;48.788;9.208;2023-09-12T07:22:59;19.25;;;8.65;;
21810;SDS011;11067;48.788;9.208;2023-09-12T07:25:25;12.82;;;8.15;;
21810;SDS011;11067;48.788;9.208;2023-09-12T07:27:51;17.60;;;8.55;;
21810;SDS011;11067;48.788;9.208;2023-09-12T07:30:18;15.70;;;8.60;;
21810;SDS011;11067;48.788;9.208;2023-09-12T07:32:44;12.32;;;7.88;;
21810;SDS011;11067;48.788;9.208;2023-09-12T07:35:10;16.63;;;8.50;;
21810;SDS011;11067;48.788;9.208;2023-09-12T07:37:36;18.08;;;8.88;;
21810;SDS011;11067;48.788;9.208;2023-09-12T07:40:02;15.63;;;9.07;;
21810;SDS011;11067;48.788;9.208;2023-09-12T07:42:34;15.05;;;9.57;;
21810;SDS011;11067;48.788;9.208;2023-09-12T07:45:01;17.17;;;8.98;;
21810;SDS011;11067;48.788;9.208;2023-09-12T07:47:28;12.10;;;8.20;;
21810;SDS011;11067;48.788;9.208;2023-09-12T07:49:54;13.43;;;8.10;;
21810;SDS011;11067;48.788;9.208;2023-09-12T07:52:20;14.40;;;7.93;;
21810;SDS011;11067;48.788;9.208;2023-09-12T07:54:46;14.95;;;8.75;;
21810;SDS011;11067;48.788;9.208;2023-09-12T07:57:12;16.43;;;8.87;;
21810;SDS011;11067;48.788;9.208;2023-09-12T07:59:38;18.20;;;9.33;;
21810;SDS011;11067;48.788;9.208;2023-09-12T08:02:04;19.92;;;9.20;;
21810;SDS011;11067;48.788;9.208;2023-09-12T08:04:30;19.92;;;10.15;;
21810;SDS011;11067;48.788;9.208;2023-09-12T08:06:56;15.77;;;8.73;;
21810;SDS011;11067;48.788;9.208;2023-09-12T08:09:22;16.67;;;8.80;;
21810;SDS011;11067;48.788;9.208;2023-09-12T08:11:48;14.43;;;8.07;;
21810;SDS011;11067;48.788;9.208;2023-09-12T08:14:14;14.50;;;8.30;;
21810;SDS011;11067;48.788;9.208;2023-09-12T08:16:40;16.40;;;8.60;;
21810;SDS011;11067;48.788;9.208;2023-09-12T08:19:06;17.50;;;9.68;;
21810;SDS011;11067;48.788;9.208;2023-09-12T08:21:32;19.40;;;9.38;;
21810;SDS011;11067;48.788;9.208;2023-09-12T08:23:58;15.05;;;9.25;;
21810;SDS011;11067;48.788;9.208;2023-09-12T08:26:24;14.18;;;9.20;;
21810;SDS011;11067;48.788;9.208;2023-09-12T08:28:50;19.33;;;9.60;;
21810;SDS011;11067;48.788;9.208;2023-09-12T08:31:16;15.38;;;9.30;;
21810;SDS011;11067;48.788;9.208;2023-09-12T08:33:42;22.10;;;10.55;;
21810;SDS011;11067;48.788;9.208;2023-09-12T08:36:08;21.80;;;11.10;;
21810;SDS011;11067;48.788;9.208;2023-09-12T08:38:34;21.05;;;8.98;;
21810;SDS011;11067;48.788;9.208;2023-09-12T08:41:00;16.23;;;9.35;;
21810;SDS011;11067;48.788;9.208;2023-09-12T08:43:26;15.55;;;8.85;;
21810;SDS011;11067;48.788;9.208;2023-09-12T08:45:52;18.88;;;9.13;;
21810;SDS011;11067;48.788;9.208;2023-09-12T08:48:18;16.92;;;8.50;;
21810;SDS011;11067;48.788;9.208;2023-09-12T08:50:45;16.85;;;8.18;;
21810;SDS011;11067;48.788;9.208;2023-09-12T08:53:13;16.20;;;8.77;;
21810;SDS011;11067;48.788;9.208;2023-09-12T08:55:40;14.07;;;8.13;;
21810;SDS011;11067;48.788;9.208;2023-09-12T08:58:06;14.50;;;8.50;;
21810;SDS011;11067;48.788;9.208;2023-09-12T09:00:32;19.98;;;8.40;;
21810;SDS011;11067;48.788;9.208;2023-09-12T09:02:58;19.92;;;9.35;;
21810;SDS011;11067;48.788;9.208;2023-09-12T09:05:24;32.55;;;10.48;;
21810;SDS011;11067;48.788;9.208;2023-09-12T09:07:50;14.70;;;8.38;;
21810;SDS011;11067;48.788;9.208;2023-09-12T09:10:17;15.25;;;8.10;;
21810;SDS011;11067;48.788;9.208;2023-09-12T09:12:44;20.50;;;9.13;;
21810;SDS011;11067;48.788;9.208;2023-09-12T09:15:27;15.63;;;8.65;;
21810;SDS011;11067;48.788;9.208;2023-09-12T09:17:53;19.90;;;9.60;;
21810;SDS011;11067;48.788;9.208;2023-09-12T09:20:30;16.08;;;9.63;;
21810;SDS011;11067;48.788;9.208;2023-09-12T09:23:06;15.93;;;9.05;;
21810;SDS011;11067;48.788;9.208;2023-09-12T09:25:43;19.00;;;9.57;;
21810;SDS011;11067;48.788;9.208;2023-09-12T09:28:18;15.40;;;8.53;;
21810;SDS011;11067;48.788;9.208;2023-09-12T09:30:45;18.00;;;9.20;;
21810;SDS011;11067;48.788;9.208;2023-09-12T09:33:12;16.00;;;8.70;;
21810;SDS011;11067;48.788;9.208;2023-09-12T09:35:40;12.90;;;7.63;;
21810;SDS011;11067;48.788;9.208;2023-09-12T09:38:07;13.48;;;8.30;;
21810;SDS011;11067;48.788;9.208;2023-09-12T09:40:33;12.02;;;8.30;;
21810;SDS011;11067;48.788;9.208;2023-09-12T09:43:00;13.23;;;7.50;;
21810;SDS011;11067;48.788;9.208;2023-09-12T09:45:27;12.80;;;7.80;;
21810;SDS011;11067;48.788;9.208;2023-09-12T09:47:56;14.53;;;7.70;;
21810;SDS011;11067;48.788;9.208;2023-09-12T09:50:22;15.05;;;7.90;;
21810;SDS011;11067;48.788;9.208;2023-09-12T09:52:52;12.15;;;8.13;;
21810;SDS011;11067;48.788;9.208;2023-09-12T09:55:19;11.85;;;7.80;;
21810;SDS011;11067;48.788;9.208;2023-09-12T09:57:45;12.87;;;7.87;;
21810;SDS011;11067;48.788;9.208;2023-09-12T10:00:11;15.75;;;8.55;;
21810;SDS011;11067;48.788;9.208;2023-09-12T10:02:40;14.63;;;7.95;;
21810;SDS011;11067;48.788;9.208;2023-09-12T10:05:06;14.55;;;7.80;;
21810;SDS011;11067;48.788;9.208;2023-09-12T10:07:37;15.80;;;8.32;;
21810;SDS011;11067;48.788;9.208;2023-09-12T10:10:03;16.55;;;8.55;;
21810;SDS011;11067;48.788;9.208;2023-09-12T10:12:34;12.63;;;7.63;;
21810;SDS011;11067;48.788;9.208;2023-09-12T10:15:01;11.68;;;8.00;;
21810;SDS011;11067;48.788;9.208;2023-09-12T10:17:30;19.15;;;7.93;;
21810;SDS011;11067;48.788;9.208;2023-09-12T10:19:58;13.45;;;7.90;;
21810;SDS011;11067;48.788;9.208;2023-09-12T10:22:25;11.93;;;7.78;;
21810;SDS011;11067;48.788;9.208;2023-09-12T10:24:53;12.57;;;8.35;;
21810;SDS011;11067;48.788;9.208;2023-09-12T10:27:21;18.38;;;7.95;;
21810;SDS011;11067;48.788;9.208;2023-09-12T10:29:48;10.23;;;7.35;;
21810;SDS011;11067;48.788;9.208;2023-09-12T10:32:17;13.02;;;7.65;;
21810;SDS011;11067;48.788;9.208;2023-09-12T10:34:45;11.65;;;7.22;;
21810;SDS011;11067;48.788;9.208;2023-09-12T10:37:12;10.85;;;7.45;;
21810;SDS011;11067;48.788;9.208;2023-09-12T10:39:40;12.17;;;7.00;;
21810;SDS011;11067;48.788;9.208;2023-09-12T10:42:08;10.05;;;6.43;;
21810;SDS011;11067;48.788;9.208;2023-09-12T10:44:35;11.02;;;7.13;;
21810;SDS011;11067;48.788;9.208;2023-09-12T10:47:01;10.37;;;6.83;;
21810;SDS011;11067;48.788;9.208;2023-09-12T10:49:28;11.68;;;6.90;;
21810;SDS011;11067;48.788;9.208;2023-09-12T10:51:55;13.43;;;6.90;;
21810;SDS011;11067;48.788;9.208;2023-09-12T10:54:26;11.45;;;6.95;;
21810;SDS011;11067;48.788;9.208;2023-09-12T10:57:02;11.85;;;6.68;;
21810;SDS011;11067;48.788;9.208;2023-09-12T10:59:28;10.70;;;6.43;;
21810;SDS011;11067;48.788;9.208;2023-09-12T11:02:00;10.88;;;6.75;;
21810;SDS011;11067;48.788;9.208;2023-09-12T11:04:42;12.77;;;6.20;;
21810;SDS011;11067;48.788;9.208;2023-09-12T11:10:15;11.60;;;6.30;;
21810;SDS011;11067;48.788;9.208;2023-09-12T11:12:48;11.35;;;6.50;;
21810;SDS011;11067;48.788;9.208;2023-09-12T11:15:15;11.73;;;6.40;;
21810;SDS011;11067;48.788;9.208;2023-09-12T11:18:03;10.50;;;6.23;;
21810;SDS011;11067;48.788;9.208;2023-09-12T11:20:48;14.07;;;6.07;;
21810;SDS011;11067;48.788;9.208;2023-09-12T11:23:14;10.18;;;5.72;;
21810;SDS011;11067;48.788;9.208;2023-09-12T11:25:40;12.57;;;6.68;;
21810;SDS011;11067;48.788;9.208;2023-09-12T11:28:06;9.80;;;5.63;;
21810;SDS011;11067;48.788;9.208;2023-09-12T11:30:32;9.07;;;5.80;;
21810;SDS011;11067;48.788;9.208;2023-09-12T11:32:59;11.52;;;6.25;;
21810;SDS011;11067;48.788;9.208;2023-09-12T11:35:28;9.63;;;6.40;;
21810;SDS011;11067;48.788;9.208;2023-09-12T11:37:55;9.83;;;5.93;;
21810;SDS011;11067;48.788;9.208;2023-09-12T11:40:25;10.73;;;6.40;;
21810;SDS011;11067;48.788;9.208;2023-09-12T11:42:52;9.00;;;6.30;;
21810;SDS011;11067;48.788;9.208;2023-09-12T11:45:21;11.60;;;6.50;;
21810;SDS011;11067;48.788;9.208;2023-09-12T11:47:48;12.80;;;6.72;;
21810;SDS011;11067;48.788;9.208;2023-09-12T11:50:33;10.33;;;6.40;;
21810;SDS011;11067;48.788;9.208;2023-09-12T11:55:26;10.93;;;6.65;;
21810;SDS011;11067;48.788;9.208;2023-09-12T11:57:54;12.60;;;7.17;;
21810;SDS011;11067;48.788;9.208;2023-09-12T12:00:20;10.20;;;6.28;;
21810;SDS011;11067;48.788;9.208;2023-09-12T12:02:47;13.73;;;6.38;;
21810;SDS011;11067;48.788;9.208;2023-09-12T12:05:22;8.13;;;6.07;;
21810;SDS011;11067;48.788;9.208;2023-09-12T12:07:48;8.68;;;6.60;;
21810;SDS011;11067;48.788;9.208;2023-09-12T12:10:18;9.52;;;6.75;;
21810;SDS011;11067;48.788;9.208;2023-09-12T12:12:44;9.35;;;6.43;;
21810;SDS011;11067;48.788;9.208;2023-09-12T12:15:13;10.38;;;6.68;;
21810;SDS011;11067;48.788;9.208;2023-09-12T12:17:42;14.83;;;6.43;;
21810;SDS011;11067;48.788;9.208;2023-09-12T12:20:11;14.45;;;6.78;;
21810;SDS011;11067;48.788;9.208;2023-09-12T12:22:39;8.63;;;6.18;;
21810;SDS011;11067;48.788;9.208;2023-09-12T12:25:06;9.88;;;6.20;;
21810;SDS011;11067;48.788;9.208;2023-09-12T12:27:33;8.88;;;5.93;;
21810;SDS011;11067;48.788;9.208;2023-09-12T12:30:00;10.98;;;6.07;;
21810;SDS011;11067;48.788;9.208;2023-09-12T12:32:26;11.30;;;6.70;;
21810;SDS011;11067;48.788;9.208;2023-09-12T12:34:52;10.13;;;6.35;;
21810;SDS011;11067;48.788;9.208;2023-09-12T12:37:18;10.15;;;6.30;;
21810;SDS011;11067;48.788;9.208;2023-09-12T12:39:44;10.88;;;6.13;;
21810;SDS011;11067;48.788;9.208;2023-09-12T12:42:10;9.18;;;6.03;;
21810;SDS011;11067;48.788;9.208;2023-09-12T12:44:36;9.82;;;5.88;;
21810;SDS011;11067;48.788;9.208;2023-09-12T12:47:06;11.63;;;6.07;;
21810;SDS011;11067;48.788;9.208;2023-09-12T12:49:35;8.17;;;5.63;;
21810;SDS011;11067;48.788;9.208;2023-09-12T12:52:03;8.75;;;5.53;;
21810;SDS011;11067;48.788;9.208;2023-09-12T12:54:31;10.45;;;5.78;;
21810;SDS011;11067;48.788;9.208;2023-09-12T12:56:58;9.82;;;5.63;;
21810;SDS011;11067;48.788;9.208;2023-09-12T12:59:24;8.23;;;5.20;;
21810;SDS011;11067;48.788;9.208;2023-09-12T13:01:50;7.37;;;4.77;;
21810;SDS011;11067;48.788;9.208;2023-09-12T13:04:16;10.52;;;5.32;;
21810;SDS011;11067;48.788;9.208;2023-09-12T13:06:42;7.75;;;4.75;;
21810;SDS011;11067;48.788;9.208;2023-09-12T13:09:07;8.50;;;5.07;;
21810;SDS011;11067;48.788;9.208;2023-09-12T13:11:34;8.45;;;5.28;;
21810;SDS011;11067;48.788;9.208;2023-09-12T13:14:00;9.17;;;5.20;;
21810;SDS011;11067;48.788;9.208;2023-09-12T13:16:26;7.13;;;4.97;;
21810;SDS011;11067;48.788;9.208;2023-09-12T13:18:53;7.13;;;4.70;;
21810;SDS011;11067;48.788;9.208;2023-09-12T13:21:18;7.18;;;5.18;;
21810;SDS011;11067;48.788;9.208;2023-09-12T13:23:44;6.90;;;4.93;;
21810;SDS011;11067;48.788;9.208;2023-09-12T13:26:09;6.80;;;5.20;;
21810;SDS011;11067;48.788;9.208;2023-09-12T13:28:35;6.53;;;5.20;;
21810;SDS011;11067;48.788;9.208;2023-09-12T13:31:02;8.07;;;4.82;;
21810;SDS011;11067;48.788;9.208;2023-09-12T13:33:28;6.45;;;4.75;;
21810;SDS011;11067;48.788;9.208;2023-09-12T13:35:54;6.83;;;4.90;;
21810;SDS011;11067;48.788;9.208;2023-09-12T13:38:19;8.10;;;5.13;;
21810;SDS011;11067;48.788;9.208;2023-09-12T13:40:45;7.22;;;5.03;;
21810;SDS011;11067;48.788;9.208;2023-09-12T13:43:11;9.43;;;4.85;;
21810;SDS011;11067;48.788;9.208;2023-09-12T13:45:37;8.35;;;5.28;;
21810;SDS011;11067;48.788;9.208;2023-09-12T13:48:03;9.60;;;4.73;;
21810;SDS011;11067;48.788;9.208;2023-09-12T13:50:30;6.20;;;5.20;;
21810;SDS011;11067;48.788;9.208;2023-09-12T13:52:58;7.93;;;5.47;;
21810;SDS011;11067;48.788;9.208;2023-09-12T13:55:25;9.17;;;5.30;;
21810;SDS011;11067;48.788;9.208;2023-09-12T13:57:51;7.97;;;5.93;;
21810;SDS011;11067;48.788;9.208;2023-09-12T14:00:17;8.90;;;5.33;;
21810;SDS011;11067;48.788;9.208;2023-09-12T14:02:42;8.53;;;5.87;;
21810;SDS011;11067;48.788;9.208;2023-09-12T14:05:09;8.73;;;5.43;;
21810;SDS011;11067;48.788;9.208;2023-09-12T14:07:35;8.60;;;5.78;;
21810;SDS011;11067;48.788;9.208;2023-09-12T14:10:02;8.03;;;4.93;;
21810;SDS011;11067;48.788;9.208;2023-09-12T14:12:27;7.47;;;5.80;;
21810;SDS011;11067;48.788;9.208;2023-09-12T14:14:53;10.25;;;5.72;;
21810;SDS011;11067;48.788;9.208;2023-09-12T14:17:19;10.20;;;6.00;;
21810;SDS011;11067;48.788;9.208;2023-09-12T14:19:45;10.57;;;5.63;;
21810;SDS011;11067;48.788;9.208;2023-09-12T14:22:11;12.07;;;5.77;;
21810;SDS011;11067;48.788;9.208;2023-09-12T14:24:37;9.48;;;5.80;;
21810;SDS011;11067;48.788;9.208;2023-09-12T14:27:02;10.23;;;5.70;;
21810;SDS011;11067;48.788;9.208;2023-09-12T14:29:29;9.93;;;6.00;;
21810;SDS011;11067;48.788;9.208;2023-09-12T14:31:55;11.05;;;5.90;;
21810;SDS011;11067;48.788;9.208;2023-09-12T14:34:24;11.55;;;5.57;;
21810;SDS011;11067;48.788;9.208;2023-09-12T14:36:54;9.00;;;5.32;;
21810;SDS011;11067;48.788;9.208;2023-09-12T14:39:21;10.77;;;6.13;;